Time;durP1;ratioP1;P1;durP2;ratioP2;P2;SDS_P1;SDS_P2;PMS_P1;PMS_P2;Temp;Humidity;BMP_temperature;BMP_pressure;BME280_temperature;BME280_humidity;BME280_pressure;Samples;Min_cycle;Max_cycle;Signal;HPM_P1;HPM_P2
2023/03/05 00:02:06;;;;;;;12.13;2.30;;;4.00;99.90;;;;;;5090984;28;20059;-78
2023/03/05 00:04:32;;;;;;;11.75;2.58;;;3.90;99.90;;;;;;5092231;28;20106;-78
2023/03/05 00:06:57;;;;;;;10.65;2.78;;;3.90;99.90;;;;;;5089145;28;20407;-78
2023/03/05 00:09:23;;;;;;;8.52;2.50;;;3.90;99.90;;;;;;5085274;28;20051;-78
2023/03/05 00:11:48;;;;;;;10.57;2.47;;;3.90;99.90;;;;;;5091142;28;20028;-78
2023/03/05 00:14:14;;;;;;;12.55;2.38;;;3.90;99.90;;;;;;5089641;28;20044;-78
2023/03/05 00:16:40;;;;;;;7.43;2.30;;;3.90;99.90;;;;;;5089246;28;20556;-78
2023/03/05 00:19:06;;;;;;;10.10;2.42;;;3.90;99.90;;;;;;5090243;28;20155;-78
2023/03/05 00:21:37;;;;;;;9.85;2.63;;;3.90;99.90;;;;;;5084891;28;20039;-78
2023/03/05 00:24:06;;;;;;;10.57;2.30;;;3.90;99.90;;;;;;5090805;28;20381;-78
2023/03/05 00:26:35;;;;;;;9.13;2.00;;;3.90;99.90;;;;;;5083185;28;20051;-78
2023/03/05 00:29:01;;;;;;;10.43;1.90;;;3.90;99.90;;;;;;5089541;28;20040;-78
2023/03/05 00:31:29;;;;;;;12.10;2.50;;;3.90;99.90;;;;;;5078078;28;20513;-78
2023/03/05 00:33:57;;;;;;;9.85;2.80;;;3.90;99.90;;;;;;5080118;28;20114;-78
2023/03/05 00:36:24;;;;;;;8.50;2.58;;;3.90;99.90;;;;;;5090831;28;20127;-78
2023/03/05 00:38:49;;;;;;;6.53;2.00;;;3.90;99.90;;;;;;5091894;28;20048;-77
2023/03/05 00:41:16;;;;;;;8.23;2.10;;;3.90;99.90;;;;;;5084453;28;20050;-78
2023/03/05 00:43:42;;;;;;;9.60;2.05;;;3.90;99.90;;;;;;5090807;28;20123;-78
2023/03/05 00:46:07;;;;;;;9.73;1.85;;;3.90;99.90;;;;;;5087124;28;20044;-78
2023/03/05 00:48:33;;;;;;;8.63;1.92;;;3.90;99.90;;;;;;5087138;28;20204;-78
2023/03/05 00:50:59;;;;;;;9.98;2.42;;;3.90;99.90;;;;;;5087735;28;20097;-78
2023/03/05 00:53:25;;;;;;;7.85;2.25;;;3.90;99.90;;;;;;5089456;28;20444;-78
2023/03/05 00:55:51;;;;;;;10.85;2.10;;;3.90;99.90;;;;;;5088530;28;20502;-78
2023/03/05 00:58:16;;;;;;;8.18;1.98;;;3.90;99.90;;;;;;5086256;28;20044;-78
2023/03/05 01:00:42;;;;;;;9.90;2.60;;;3.90;99.90;;;;;;5087930;28;20063;-77
2023/03/05 01:03:08;;;;;;;10.43;2.10;;;3.90;99.90;;;;;;5088606;28;20132;-78
2023/03/05 01:05:34;;;;;;;10.25;2.15;;;3.90;99.90;;;;;;5088690;28;20041;-78
2023/03/05 01:07:59;;;;;;;8.93;2.10;;;3.90;99.90;;;;;;5087806;28;20601;-78
2023/03/05 01:10:25;;;;;;;13.13;2.83;;;3.90;99.90;;;;;;5091773;28;20441;-78
2023/03/05 01:12:55;;;;;;;11.52;2.55;;;3.90;99.90;;;;;;5088156;28;20054;-78
2023/03/05 01:15:22;;;;;;;11.43;2.40;;;3.90;99.90;;;;;;5090535;28;20044;-78
2023/03/05 01:17:47;;;;;;;10.63;2.42;;;3.90;99.90;;;;;;5089489;28;20036;-78
2023/03/05 01:20:15;;;;;;;13.15;2.45;;;3.90;99.90;;;;;;5089009;28;20039;-78
2023/03/05 01:22:40;;;;;;;;;;;3.90;99.90;;;;;;5079265;28;21044;-78
2023/03/05 01:25:06;;;;;;;10.18;2.22;;;3.90;99.90;;;;;;5087289;27;19924;-78
2023/03/05 01:27:33;;;;;;;8.75;2.08;;;3.80;99.90;;;;;;5089407;28;20112;-78
2023/03/05 01:29:59;;;;;;;7.68;1.83;;;3.80;99.90;;;;;;5088998;28;20036;-78
2023/03/05 01:32:24;;;;;;;5.90;1.63;;;3.80;99.90;;;;;;5089545;28;20142;-78
2023/03/05 01:34:50;;;;;;;8.43;1.92;;;3.80;99.90;;;;;;5084341;28;21024;-77
2023/03/05 01:37:16;;;;;;;7.25;2.17;;;3.80;99.90;;;;;;5089237;28;20035;-78
2023/03/05 01:39:41;;;;;;;8.77;1.70;;;3.80;99.90;;;;;;5089804;28;20415;-78
2023/03/05 01:42:07;;;;;;;5.90;1.52;;;3.80;99.90;;;;;;5085848;28;20537;-78
2023/03/05 01:44:33;;;;;;;6.85;2.03;;;3.80;99.90;;;;;;5088065;28;20048;-78
2023/03/05 01:46:59;;;;;;;8.73;1.70;;;3.80;99.90;;;;;;5087002;28;20071;-78
2023/03/05 01:49:40;;;;;;;7.07;1.65;;;3.80;99.90;;;;;;5088575;28;20130;-78
2023/03/05 01:52:20;;;;;;;8.00;2.17;;;3.80;99.90;;;;;;5087448;28;20387;-78
2023/03/05 01:54:59;;;;;;;7.05;1.30;;;3.70;99.90;;;;;;5087668;28;20923;-78
2023/03/05 01:57:35;;;;;;;6.20;1.30;;;3.80;99.90;;;;;;5087510;28;20052;-78
2023/03/05 02:00:11;;;;;;;8.15;1.55;;;3.80;99.90;;;;;;5087432;28;20077;-77
2023/03/05 02:02:37;;;;;;;6.80;1.30;;;3.70;99.90;;;;;;5088811;28;20032;-78
2023/03/05 02:05:07;;;;;;;8.30;2.08;;;3.70;99.90;;;;;;5088217;28;20399;-78
2023/03/05 02:07:36;;;;;;;12.10;2.35;;;3.70;99.90;;;;;;5089280;28;20044;-78
2023/03/05 02:10:14;;;;;;;7.13;1.85;;;3.70;99.90;;;;;;5091117;28;20040;-78
2023/03/05 02:12:41;;;;;;;5.57;1.80;;;3.60;99.90;;;;;;5082480;28;20074;-78
2023/03/05 02:15:07;;;;;;;7.70;2.35;;;3.60;99.90;;;;;;5075039;28;20070;-78
2023/03/05 02:17:32;;;;;;;7.60;2.95;;;3.60;99.90;;;;;;5087415;28;20158;-78
2023/03/05 02:20:07;;;;;;;10.43;2.83;;;3.50;99.90;;;;;;5089231;28;20166;-78
2023/03/05 02:22:32;;;;;;;8.88;3.38;;;3.50;99.90;;;;;;5085315;28;20097;-78
2023/03/05 02:24:58;;;;;;;9.20;3.03;;;3.50;99.90;;;;;;5088226;28;20044;-78
2023/03/05 02:27:33;;;;;;;11.40;3.15;;;3.50;99.90;;;;;;5084451;28;20043;-78
2023/03/05 02:30:00;;;;;;;9.15;3.45;;;3.50;99.90;;;;;;5082160;28;20483;-77
2023/03/05 02:32:26;;;;;;;9.15;3.75;;;3.50;99.90;;;;;;5088144;28;20054;-78
2023/03/05 02:34:52;;;;;;;13.77;4.13;;;3.50;99.90;;;;;;5087142;28;20395;-79
2023/03/05 02:37:17;;;;;;;10.98;3.85;;;3.60;99.90;;;;;;5089153;28;20056;-78
2023/03/05 02:39:43;;;;;;;13.32;4.50;;;3.50;99.90;;;;;;5088615;28;20115;-79
2023/03/05 02:42:09;;;;;;;11.52;4.30;;;3.50;99.90;;;;;;5082641;28;20651;-78
2023/03/05 02:44:35;;;;;;;13.65;3.83;;;3.50;99.90;;;;;;5086343;28;20137;-78
2023/03/05 02:47:01;;;;;;;12.98;3.90;;;3.60;99.90;;;;;;5085873;28;20069;-78
2023/03/05 02:49:27;;;;;;;10.20;3.60;;;3.50;99.90;;;;;;5084537;28;20040;-79
2023/03/05 02:51:53;;;;;;;9.88;3.50;;;3.50;99.90;;;;;;5082919;28;20306;-79
2023/03/05 02:54:19;;;;;;;10.10;3.33;;;3.50;99.90;;;;;;5087835;28;20438;-79
2023/03/05 02:56:44;;;;;;;9.15;2.65;;;3.50;99.90;;;;;;5086864;28;20048;-78
2023/03/05 02:59:10;;;;;;;10.40;3.15;;;3.50;99.90;;;;;;5087149;28;20036;-78
2023/03/05 03:01:36;;;;;;;9.73;3.20;;;3.50;99.90;;;;;;5089447;28;20104;-78
2023/03/05 03:04:01;;;;;;;13.77;3.83;;;3.50;99.90;;;;;;5086513;28;20059;-78
2023/03/05 03:06:27;;;;;;;10.38;3.15;;;3.40;99.90;;;;;;5091862;28;20044;-78
2023/03/05 03:08:52;;;;;;;10.25;3.58;;;3.40;99.90;;;;;;5088309;28;20035;-78
2023/03/05 03:11:19;;;;;;;9.73;3.30;;;3.30;99.90;;;;;;5090734;28;20418;-77
2023/03/05 03:13:45;;;;;;;11.07;3.15;;;3.30;99.90;;;;;;5089049;28;20093;-78
2023/03/05 03:16:13;;;;;;;11.55;2.85;;;3.30;99.90;;;;;;5084657;28;20036;-78
2023/03/05 03:18:39;;;;;;;8.35;3.00;;;3.20;99.90;;;;;;5092727;28;20384;-77
2023/03/05 03:21:05;;;;;;;10.13;3.00;;;3.30;99.90;;;;;;5090926;28;20050;-78
2023/03/05 03:23:32;;;;;;;11.52;3.17;;;3.20;99.90;;;;;;5081855;28;20503;-78
2023/03/05 03:25:58;;;;;;;10.15;3.17;;;3.20;99.90;;;;;;5090679;28;20733;-78
2023/03/05 03:28:24;;;;;;;11.25;3.42;;;3.20;99.90;;;;;;5090256;28;20044;-78
2023/03/05 03:30:50;;;;;;;7.30;2.63;;;3.10;99.90;;;;;;5090166;28;20115;-78
2023/03/05 03:33:17;;;;;;;8.38;2.90;;;3.10;99.90;;;;;;5090265;28;20040;-78
2023/03/05 03:35:46;;;;;;;10.98;3.10;;;3.10;99.90;;;;;;5090442;28;20759;-78
2023/03/05 03:38:12;;;;;;;10.45;3.53;;;3.10;99.90;;;;;;5091439;28;20051;-78
2023/03/05 03:40:39;;;;;;;9.32;3.60;;;3.10;99.90;;;;;;5094316;28;20044;-79
2023/03/05 03:43:05;;;;;;;10.85;3.90;;;3.10;99.90;;;;;;5089319;28;20051;-78
2023/03/05 03:45:31;;;;;;;10.75;3.63;;;3.10;99.90;;;;;;5087408;28;20040;-78
2023/03/05 03:47:56;;;;;;;8.35;4.03;;;3.20;99.90;;;;;;5090664;28;20055;-78
2023/03/05 03:50:23;;;;;;;11.73;4.45;;;3.20;99.90;;;;;;5093573;28;20032;-78
2023/03/05 03:52:49;;;;;;;11.57;3.28;;;3.20;99.90;;;;;;5087688;28;20074;-78
2023/03/05 03:55:15;;;;;;;11.60;3.55;;;3.20;99.90;;;;;;5092717;28;20047;-78
2023/03/05 03:57:42;;;;;;;10.30;2.63;;;3.20;99.90;;;;;;5089739;28;20044;-78
2023/03/05 04:00:10;;;;;;;9.95;2.60;;;3.20;99.90;;;;;;5089773;28;20036;-77
2023/03/05 04:02:36;;;;;;;12.73;2.80;;;3.20;99.90;;;;;;5089769;28;20048;-78
2023/03/05 04:05:02;;;;;;;11.52;2.80;;;3.20;99.90;;;;;;5093204;28;20044;-78
2023/03/05 04:07:28;;;;;;;11.82;3.20;;;3.20;99.90;;;;;;5088029;28;20483;-78
2023/03/05 04:09:54;;;;;;;10.38;3.38;;;3.20;99.90;;;;;;5091053;28;20042;-78
2023/03/05 04:12:20;;;;;;;12.55;4.25;;;3.20;99.90;;;;;;5086241;28;20043;-78
2023/03/05 04:14:47;;;;;;;10.95;3.70;;;3.20;99.90;;;;;;5074085;28;20048;-77
2023/03/05 04:17:13;;;;;;;13.20;4.00;;;3.20;99.90;;;;;;5085495;28;20131;-77
2023/03/05 04:19:39;;;;;;;10.65;2.88;;;3.20;99.90;;;;;;5089486;28;20043;-78
2023/03/05 04:22:09;;;;;;;11.23;3.13;;;3.30;99.90;;;;;;5088273;28;20059;-77
2023/03/05 04:24:34;;;;;;;10.98;2.85;;;3.20;99.90;;;;;;5091876;28;20040;-77
2023/03/05 04:27:00;;;;;;;10.18;3.17;;;3.30;99.90;;;;;;5091181;28;20529;-77
2023/03/05 04:29:25;;;;;;;8.90;3.03;;;3.30;99.90;;;;;;5092442;28;20040;-78
2023/03/05 04:31:51;;;;;;;7.63;2.47;;;3.30;99.90;;;;;;5086208;28;20127;-77
2023/03/05 04:34:17;;;;;;;7.55;2.58;;;3.30;99.90;;;;;;5087845;28;20051;-78
2023/03/05 04:36:43;;;;;;;9.43;2.42;;;3.30;99.90;;;;;;5090629;28;20056;-78
2023/03/05 04:39:08;;;;;;;9.05;2.47;;;3.30;99.90;;;;;;5086458;28;20052;-78
2023/03/05 04:41:34;;;;;;;9.82;2.63;;;3.30;99.90;;;;;;5091386;28;20036;-78
2023/03/05 04:44:00;;;;;;;9.95;2.38;;;3.30;99.90;;;;;;5087873;28;20391;-78
2023/03/05 04:46:26;;;;;;;10.07;2.30;;;3.30;99.90;;;;;;5084037;28;20075;-78
2023/03/05 04:48:52;;;;;;;6.90;2.17;;;3.30;99.90;;;;;;5082855;28;20052;-78
2023/03/05 04:51:17;;;;;;;10.23;2.35;;;3.20;99.90;;;;;;5088623;28;20047;-78
2023/03/05 04:53:43;;;;;;;7.00;2.10;;;3.30;99.90;;;;;;5083436;28;20075;-79
2023/03/05 04:56:09;;;;;;;9.18;2.17;;;3.20;99.90;;;;;;5087750;28;20407;-78
2023/03/05 04:58:34;;;;;;;4.63;1.75;;;3.30;99.90;;;;;;5088724;28;20109;-78
2023/03/05 05:01:01;;;;;;;7.40;2.10;;;3.20;99.90;;;;;;5088343;28;20081;-77
2023/03/05 05:03:27;;;;;;;8.80;2.40;;;3.20;99.90;;;;;;5086365;28;20051;-77
2023/03/05 05:05:54;;;;;;;8.52;2.20;;;3.30;99.90;;;;;;5078139;28;20039;-78
2023/03/05 05:08:21;;;;;;;7.18;1.95;;;3.20;99.90;;;;;;5091435;28;20047;-77
2023/03/05 05:10:55;;;;;;;8.52;1.98;;;3.20;99.90;;;;;;5084243;28;20052;-77
2023/03/05 05:13:20;;;;;;;6.78;1.70;;;3.20;99.90;;;;;;5088145;28;20181;-77
2023/03/05 05:15:46;;;;;;;6.63;2.00;;;3.20;99.90;;;;;;5086897;28;20143;-77
2023/03/05 05:18:12;;;;;;;6.22;1.73;;;3.20;99.90;;;;;;5087825;28;20492;-77
2023/03/05 05:20:38;;;;;;;5.70;1.65;;;3.20;99.90;;;;;;5089198;28;20048;-77
2023/03/05 05:23:03;;;;;;;6.05;1.60;;;3.20;99.90;;;;;;5088507;28;20611;-78
2023/03/05 05:25:29;;;;;;;6.78;1.55;;;3.20;99.90;;;;;;5088165;28;20540;-77
2023/03/05 05:27:54;;;;;;;7.40;1.75;;;3.20;99.90;;;;;;5089691;28;20043;-77
2023/03/05 05:30:20;;;;;;;5.85;1.45;;;3.20;99.90;;;;;;5087852;28;20036;-77
2023/03/05 05:32:46;;;;;;;6.45;1.95;;;3.20;99.90;;;;;;5086897;28;20047;-77
2023/03/05 05:35:11;;;;;;;8.05;1.80;;;3.30;99.90;;;;;;5084517;28;20055;-77
2023/03/05 05:37:37;;;;;;;5.28;1.50;;;3.20;99.90;;;;;;5087337;28;20510;-77
2023/03/05 05:40:04;;;;;;;3.53;1.50;;;3.30;99.90;;;;;;5086134;28;20384;-77
2023/03/05 05:42:30;;;;;;;4.65;1.40;;;3.30;99.90;;;;;;5088054;28;20383;-77
2023/03/05 05:44:55;;;;;;;4.57;1.70;;;3.20;99.90;;;;;;5090710;28;20044;-77
2023/03/05 05:47:21;;;;;;;5.40;1.60;;;3.30;99.90;;;;;;5087952;28;20051;-77
2023/03/05 05:49:47;;;;;;;5.85;1.65;;;3.30;99.90;;;;;;5090010;28;20040;-77
2023/03/05 05:52:13;;;;;;;4.53;1.30;;;3.20;99.90;;;;;;5088108;28;20105;-77
2023/03/05 05:54:39;;;;;;;4.78;1.25;;;3.20;99.90;;;;;;5088514;28;20043;-77
2023/03/05 05:57:05;;;;;;;7.30;1.67;;;3.30;99.90;;;;;;5087745;28;20607;-77
2023/03/05 05:59:31;;;;;;;5.00;1.48;;;3.20;99.90;;;;;;5088646;28;20051;-77
2023/03/05 06:01:56;;;;;;;4.78;1.50;;;3.20;99.90;;;;;;5090416;28;20044;-77
2023/03/05 06:04:22;;;;;;;7.13;1.50;;;3.20;99.90;;;;;;5086862;28;20063;-77
2023/03/05 06:06:48;;;;;;;6.82;1.30;;;3.20;99.90;;;;;;5085123;28;20063;-77
2023/03/05 06:09:14;;;;;;;5.55;1.40;;;3.20;99.90;;;;;;5085867;28;20537;-77
2023/03/05 06:11:39;;;;;;;3.38;1.50;;;3.20;99.90;;;;;;5071852;28;20051;-77
2023/03/05 06:14:06;;;;;;;6.97;1.60;;;3.10;99.90;;;;;;5086469;28;20052;-77
2023/03/05 06:16:32;;;;;;;4.97;1.50;;;3.10;99.90;;;;;;5087445;28;20399;-77
2023/03/05 06:18:58;;;;;;;8.00;1.70;;;3.10;99.90;;;;;;5088033;28;20044;-77
2023/03/05 06:21:24;;;;;;;5.50;1.40;;;3.20;99.90;;;;;;5085755;28;20067;-77
2023/03/05 06:23:50;;;;;;;5.50;1.45;;;3.20;99.90;;;;;;5085949;28;20125;-77
2023/03/05 06:26:19;;;;;;;6.18;1.65;;;3.10;99.90;;;;;;5089971;28;20043;-77
2023/03/05 06:28:45;;;;;;;4.93;1.60;;;3.10;99.90;;;;;;5089124;28;20044;-77
2023/03/05 06:31:14;;;;;;;5.03;1.40;;;3.10;99.90;;;;;;5084179;28;20048;-77
2023/03/05 06:33:40;;;;;;;7.30;1.50;;;3.10;99.90;;;;;;5089545;28;20044;-77
2023/03/05 06:36:08;;;;;;;6.30;1.40;;;3.20;99.90;;;;;;5085435;28;20052;-77
2023/03/05 06:38:34;;;;;;;4.03;1.55;;;3.10;99.90;;;;;;5086824;28;20859;-77
2023/03/05 06:41:04;;;;;;;5.63;1.70;;;3.10;99.90;;;;;;5084803;28;20052;-77
2023/03/05 06:43:32;;;;;;;4.95;1.55;;;3.10;99.90;;;;;;5092657;28;20051;-77
2023/03/05 06:46:05;;;;;;;6.70;1.70;;;3.10;99.90;;;;;;5094797;28;20393;-77
2023/03/05 06:48:31;;;;;;;7.72;1.95;;;3.10;99.90;;;;;;5093120;28;20039;-77
2023/03/05 06:50:56;;;;;;;5.03;1.45;;;3.20;99.90;;;;;;5092701;28;20040;-77
2023/03/05 06:53:23;;;;;;;4.75;1.52;;;3.20;99.90;;;;;;5089156;28;20077;-77
2023/03/05 06:55:50;;;;;;;6.13;1.95;;;3.20;99.90;;;;;;5091307;28;20089;-77
2023/03/05 06:58:15;;;;;;;5.57;1.77;;;3.20;99.90;;;;;;5090401;28;20047;-77
2023/03/05 07:00:42;;;;;;;5.47;1.83;;;3.20;99.90;;;;;;5088242;28;20052;-77
2023/03/05 07:03:08;;;;;;;3.97;1.60;;;3.20;99.90;;;;;;5088462;28;20048;-77
2023/03/05 07:05:37;;;;;;;6.03;1.70;;;3.30;99.90;;;;;;5087475;28;20051;-77
2023/03/05 07:08:03;;;;;;;6.70;1.77;;;3.30;99.90;;;;;;5085628;28;20082;-77
2023/03/05 07:10:29;;;;;;;5.55;1.70;;;3.30;99.90;;;;;;5089581;28;20067;-77
2023/03/05 07:12:55;;;;;;;4.85;1.60;;;3.30;99.90;;;;;;5089853;28;20044;-77
2023/03/05 07:15:21;;;;;;;6.05;2.25;;;3.40;99.90;;;;;;5086745;28;20598;-77
2023/03/05 07:17:47;;;;;;;6.07;1.88;;;3.40;99.90;;;;;;5089755;28;20040;-77
2023/03/05 07:20:13;;;;;;;6.07;1.88;;;3.40;99.90;;;;;;5085785;28;20097;-77
2023/03/05 07:22:39;;;;;;;6.20;1.80;;;3.40;99.90;;;;;;5081354;28;20131;-77
2023/03/05 07:25:05;;;;;;;5.78;2.05;;;3.40;99.90;;;;;;5090460;28;20048;-77
2023/03/05 07:27:34;;;;;;;9.23;2.42;;;3.40;99.90;;;;;;5086736;28;20059;-77
2023/03/05 07:30:00;;;;;;;5.00;1.73;;;3.50;99.90;;;;;;5093307;28;20573;-78
2023/03/05 07:32:25;;;;;;;5.85;1.70;;;3.40;99.90;;;;;;5090463;28;20063;-77
2023/03/05 07:34:51;;;;;;;6.85;1.83;;;3.50;99.90;;;;;;5092043;28;20546;-77
2023/03/05 07:37:17;;;;;;;7.78;2.17;;;3.50;99.90;;;;;;5083553;28;20048;-77
2023/03/05 07:39:42;;;;;;;7.82;1.60;;;3.60;99.90;;;;;;5092470;28;20044;-78
2023/03/05 07:42:08;;;;;;;5.28;2.00;;;3.60;99.90;;;;;;5081978;28;20044;-78
2023/03/05 07:44:33;;;;;;;7.03;1.92;;;3.60;99.90;;;;;;5080929;28;20479;-78
2023/03/05 07:46:59;;;;;;;8.90;1.92;;;3.60;99.90;;;;;;5089014;28;20043;-78
2023/03/05 07:49:25;;;;;;;7.05;1.77;;;3.60;99.90;;;;;;5089338;28;20070;-78
2023/03/05 07:51:50;;;;;;;6.07;2.13;;;3.60;99.90;;;;;;5085340;28;20511;-78
2023/03/05 07:54:16;;;;;;;9.40;3.75;;;3.60;99.90;;;;;;5087610;28;20048;-77
2023/03/05 07:56:42;;;;;;;12.07;7.10;;;3.70;99.90;;;;;;5090683;28;20048;-76
2023/03/05 07:59:10;;;;;;;11.07;6.82;;;3.70;99.90;;;;;;5089399;28;20040;-78
2023/03/05 08:01:36;;;;;;;9.65;3.25;;;3.70;99.90;;;;;;5087608;28;20555;-74
2023/03/05 08:04:03;;;;;;;8.82;5.50;;;3.80;99.90;;;;;;5090747;28;20407;-78
2023/03/05 08:06:29;;;;;;;9.10;3.25;;;3.90;99.90;;;;;;5087377;28;20072;-77
2023/03/05 08:08:56;;;;;;;9.57;2.67;;;3.90;99.90;;;;;;5090654;28;20448;-78
2023/03/05 08:11:21;;;;;;;6.82;1.88;;;4.00;99.90;;;;;;5090439;28;20036;-73
2023/03/05 08:13:47;;;;;;;9.65;2.28;;;4.00;99.90;;;;;;5092547;28;20044;-76
2023/03/05 08:16:19;;;;;;;7.63;2.10;;;4.10;99.90;;;;;;5092339;28;20033;-78
2023/03/05 08:18:45;;;;;;;6.32;2.00;;;4.10;99.90;;;;;;5090774;28;20086;-79
2023/03/05 08:21:25;;;;;;;9.40;2.35;;;4.20;99.90;;;;;;5120697;27;20051;-77
2023/03/05 08:23:51;;;;;;;10.60;2.55;;;4.10;99.90;;;;;;5092541;28;20036;-78
2023/03/05 08:26:20;;;;;;;9.65;2.42;;;4.20;99.90;;;;;;5093412;28;20044;-75
2023/03/05 08:28:46;;;;;;;6.47;1.75;;;4.20;99.90;;;;;;5091816;28;20043;-78
2023/03/05 08:31:14;;;;;;;8.95;1.88;;;4.10;99.90;;;;;;5089552;28;20047;-76
2023/03/05 08:33:40;;;;;;;8.15;1.90;;;4.20;99.90;;;;;;5091064;28;20069;-77
2023/03/05 08:36:07;;;;;;;5.88;1.63;;;4.20;99.90;;;;;;5083633;28;20087;-78
2023/03/05 08:38:33;;;;;;;6.15;1.70;;;4.20;99.90;;;;;;5092102;28;20047;-77
2023/03/05 08:40:58;;;;;;;9.30;1.95;;;4.30;99.90;;;;;;5085969;28;20032;-77
2023/03/05 08:43:24;;;;;;;12.15;6.32;;;4.30;99.90;;;;;;5094362;28;20044;-76
2023/03/05 08:45:52;;;;;;;11.27;2.63;;;4.40;99.90;;;;;;5091956;28;20467;-81
2023/03/05 08:48:18;;;;;;;;;;;4.40;99.90;;;;;;5087130;28;20052;-80
2023/03/05 08:50:44;;;;;;;34.13;10.80;;;4.40;99.90;;;;;;5084997;28;19927;-78
2023/03/05 08:53:10;;;;;;;27.55;9.90;;;4.40;99.90;;;;;;5086682;28;20048;-74
2023/03/05 08:55:37;;;;;;;80.63;30.33;;;4.50;99.90;;;;;;5086979;28;20386;-74
2023/03/05 08:58:03;;;;;;;9.87;2.70;;;4.50;99.90;;;;;;5090487;28;20487;-74
2023/03/05 09:00:29;;;;;;;7.25;2.95;;;4.60;99.90;;;;;;5090976;28;20056;-74
2023/03/05 09:02:54;;;;;;;9.55;3.00;;;4.60;99.90;;;;;;5088775;28;20413;-74
2023/03/05 09:05:20;;;;;;;10.10;2.42;;;4.70;99.90;;;;;;5086902;28;20054;-74
2023/03/05 09:07:46;;;;;;;7.70;2.70;;;4.70;99.90;;;;;;5090921;28;20035;-74
2023/03/05 09:10:14;;;;;;;10.98;1.98;;;4.80;99.90;;;;;;5085153;28;20052;-74
2023/03/05 09:12:41;;;;;;;5.93;1.75;;;4.80;99.90;;;;;;5087536;28;20046;-74
2023/03/05 09:15:08;;;;;;;9.43;1.88;;;4.80;99.90;;;;;;5090491;28;20036;-74
2023/03/05 09:17:35;;;;;;;7.07;1.85;;;4.90;99.90;;;;;;5089784;28;20475;-74
2023/03/05 09:20:03;;;;;;;8.65;2.20;;;4.90;99.90;;;;;;5089574;28;20060;-74
2023/03/05 09:22:29;;;;;;;7.25;1.70;;;5.00;99.90;;;;;;5089069;28;20062;-74
2023/03/05 09:24:58;;;;;;;7.13;1.65;;;5.00;99.90;;;;;;5085150;28;20479;-74
2023/03/05 09:27:23;;;;;;;8.50;1.90;;;5.00;99.90;;;;;;5090085;28;20373;-75
2023/03/05 09:29:51;;;;;;;5.93;1.70;;;5.10;99.90;;;;;;5089386;28;20043;-74
2023/03/05 09:32:16;;;;;;;7.55;2.58;;;5.10;99.90;;;;;;5089794;28;20101;-74
2023/03/05 09:34:42;;;;;;;9.07;1.92;;;5.20;99.90;;;;;;5087786;28;20048;-74
2023/03/05 09:37:08;;;;;;;5.85;1.88;;;5.30;99.90;;;;;;5086125;28;20040;-74
2023/03/05 09:39:35;;;;;;;7.45;1.42;;;5.30;99.90;;;;;;5081043;28;20045;-74
2023/03/05 09:42:12;;;;;;;7.40;1.70;;;5.30;99.90;;;;;;5085755;28;20055;-74
2023/03/05 09:44:45;;;;;;;9.57;1.85;;;5.30;99.90;;;;;;5086837;28;20043;-74
2023/03/05 09:47:20;;;;;;;8.45;1.85;;;5.40;99.90;;;;;;5081036;28;20052;-75
2023/03/05 09:50:01;;;;;;;8.13;1.70;;;5.30;99.90;;;;;;5088122;28;20526;-75
2023/03/05 09:52:53;;;;;;;7.80;1.80;;;5.40;99.90;;;;;;5088809;28;20032;-74
2023/03/05 09:55:34;;;;;;;10.00;2.28;;;5.50;99.90;;;;;;5087459;28;20119;-73
2023/03/05 09:58:11;;;;;;;10.27;1.92;;;5.50;99.90;;;;;;5082344;28;20052;-74
2023/03/05 10:00:44;;;;;;;11.52;1.70;;;5.60;99.90;;;;;;5078015;28;20495;-75
2023/03/05 10:03:13;;;;;;;7.43;1.58;;;5.60;99.90;;;;;;5090027;28;20358;-73
2023/03/05 10:05:58;;;;;;;10.45;1.98;;;5.70;99.90;;;;;;5087008;28;20055;-74
2023/03/05 10:08:32;;;;;;;10.18;2.22;;;5.70;99.90;;;;;;5083027;28;20105;-76
2023/03/05 10:11:01;;;;;;;9.65;1.38;;;5.70;99.90;;;;;;5087437;28;20040;-75
2023/03/05 10:13:35;;;;;;;7.43;1.42;;;5.80;99.90;;;;;;5089952;28;20104;-74
2023/03/05 10:16:46;;;;;;;7.72;1.20;;;5.90;99.90;;;;;;5088849;28;20098;-77
2023/03/05 10:19:36;;;;;;;7.00;1.40;;;5.90;99.90;;;;;;5085812;28;20791;-73
2023/03/05 10:22:13;;;;;;;8.65;1.65;;;6.00;99.90;;;;;;5084416;28;20044;-71
2023/03/05 10:25:13;;;;;;;6.50;1.40;;;6.00;99.90;;;;;;5090300;28;20047;-72
2023/03/05 10:27:49;;;;;;;6.70;1.08;;;6.00;99.90;;;;;;5087013;28;20135;-72
2023/03/05 10:30:33;;;;;;;9.20;1.23;;;6.00;99.90;;;;;;5088734;28;20054;-72
2023/03/05 10:33:13;;;;;;;5.10;1.33;;;6.00;99.90;;;;;;5088901;28;20441;-72
2023/03/05 10:36:00;;;;;;;8.75;1.85;;;6.00;99.90;;;;;;5078785;28;20044;-71
2023/03/05 10:38:35;;;;;;;;;;;6.00;99.90;;;;;;5085086;28;20060;-73
2023/03/05 10:41:15;;;;;;;9.95;1.58;;;6.00;99.90;;;;;;5119670;28;20018;-74
2023/03/05 10:43:41;;;;;;;10.23;1.67;;;6.00;99.90;;;;;;5088157;28;20077;-75
2023/03/05 10:46:15;;;;;;;5.93;1.10;;;6.10;99.90;;;;;;5084621;28;20082;-75
2023/03/05 10:48:52;;;;;;;8.48;1.90;;;6.10;99.90;;;;;;5079725;28;20047;-73
2023/03/05 10:51:33;;;;;;;5.70;1.27;;;6.10;99.90;;;;;;5082680;28;20051;-73
2023/03/05 10:54:15;;;;;;;6.05;1.38;;;6.10;99.90;;;;;;5083497;28;20048;-75
2023/03/05 10:56:40;;;;;;;6.53;1.25;;;6.10;99.90;;;;;;5082828;28;20111;-72
2023/03/05 10:59:06;;;;;;;4.28;1.00;;;6.10;99.90;;;;;;5087185;28;20543;-73
2023/03/05 11:01:32;;;;;;;6.82;1.20;;;6.10;99.90;;;;;;5083653;28;20060;-76
2023/03/05 11:04:05;;;;;;;7.60;1.63;;;6.10;99.90;;;;;;5079597;28;20474;-76
2023/03/05 11:06:34;;;;;;;5.75;1.23;;;6.10;99.90;;;;;;5079333;28;20539;-76
2023/03/05 11:09:38;;;;;;;4.80;1.42;;;6.10;99.90;;;;;;5078549;28;20039;-76
2023/03/05 11:12:13;;;;;;;7.78;1.52;;;6.10;99.90;;;;;;5077156;28;20044;-77
2023/03/05 11:14:44;;;;;;;4.53;1.15;;;6.10;99.90;;;;;;5080190;28;20041;-75
2023/03/05 11:17:31;;;;;;;6.45;1.67;;;6.10;99.90;;;;;;5083273;28;20414;-74
2023/03/05 11:20:17;;;;;;;4.32;1.08;;;6.00;99.90;;;;;;5076548;28;20044;-70
2023/03/05 11:23:12;;;;;;;5.78;1.13;;;5.90;99.90;;;;;;5091310;28;20395;-72
2023/03/05 11:25:55;;;;;;;4.65;1.20;;;5.80;99.90;;;;;;5083572;28;20498;-72
2023/03/05 11:28:39;;;;;;;4.15;1.10;;;5.60;99.90;;;;;;5090161;28;20053;-72
2023/03/05 11:31:17;;;;;;;8.07;1.58;;;5.50;99.90;;;;;;5123208;27;20048;-72
2023/03/05 11:33:57;;;;;;;3.92;1.00;;;5.40;99.90;;;;;;5089749;28;20063;-75
2023/03/05 11:36:30;;;;;;;5.90;1.35;;;5.30;99.90;;;;;;5085449;28;20036;-76
2023/03/05 11:39:06;;;;;;;5.10;1.10;;;5.40;99.90;;;;;;5090115;28;20036;-77
2023/03/05 11:42:04;;;;;;;3.83;1.00;;;5.40;99.90;;;;;;5091352;28;20044;-73
2023/03/05 11:44:52;;;;;;;5.03;1.45;;;5.50;99.90;;;;;;5086987;28;20047;-76
2023/03/05 11:47:36;;;;;;;5.88;1.40;;;5.70;99.90;;;;;;5080027;28;20127;-74
2023/03/05 11:50:17;;;;;;;6.35;1.35;;;5.70;99.90;;;;;;5092895;28;20039;-74
2023/03/05 11:53:08;;;;;;;5.05;1.27;;;5.90;99.90;;;;;;5088282;28;20040;-73
2023/03/05 11:55:39;;;;;;;6.43;1.17;;;6.10;99.90;;;;;;5081530;28;20036;-72
2023/03/05 11:58:23;;;;;;;3.55;1.00;;;6.10;99.90;;;;;;5082650;28;20056;-72
2023/03/05 12:00:49;;;;;;;5.80;1.17;;;6.10;99.90;;;;;;5090764;28;20131;-73
2023/03/05 12:03:19;;;;;;;3.28;0.80;;;5.90;99.90;;;;;;5087965;28;20515;-72
2023/03/05 12:05:49;;;;;;;2.97;0.95;;;5.80;99.90;;;;;;5088712;28;20040;-73
2023/03/05 12:08:21;;;;;;;2.72;1.00;;;5.60;99.90;;;;;;5087440;28;20033;-75
2023/03/05 12:10:47;;;;;;;3.08;0.88;;;5.50;99.90;;;;;;5078470;28;20119;-71
2023/03/05 12:13:25;;;;;;;3.80;1.00;;;5.50;99.90;;;;;;5089766;28;20478;-71
2023/03/05 12:16:24;;;;;;;3.03;1.10;;;5.50;99.90;;;;;;5076801;28;20039;-72
2023/03/05 12:19:29;;;;;;;4.90;0.93;;;5.50;99.90;;;;;;5085524;28;20141;-71
2023/03/05 12:21:55;;;;;;;4.43;0.85;;;5.50;99.90;;;;;;5091676;28;20059;-72
2023/03/05 12:24:24;;;;;;;3.90;0.93;;;5.50;99.90;;;;;;5124875;27;20044;-71
2023/03/05 12:27:02;;;;;;;3.20;1.10;;;5.50;99.90;;;;;;5082543;28;20119;-74
2023/03/05 12:29:51;;;;;;;4.70;1.17;;;5.60;99.90;;;;;;5076150;28;20082;-77
2023/03/05 12:32:30;;;;;;;2.63;1.10;;;5.60;99.90;;;;;;5084880;28;20097;-77
2023/03/05 12:35:00;;;;;;;5.53;1.30;;;5.70;99.90;;;;;;5087115;28;20052;-75
2023/03/05 12:37:26;;;;;;;5.95;1.38;;;5.90;99.90;;;;;;5090140;28;20087;-75
2023/03/05 12:40:16;;;;;;;4.10;1.35;;;6.00;99.90;;;;;;5088308;28;20072;-75
2023/03/05 12:42:45;;;;;;;5.80;1.00;;;6.10;99.90;;;;;;5080219;28;20063;-75
2023/03/05 12:45:11;;;;;;;5.45;1.23;;;6.20;99.90;;;;;;5091593;28;20036;-75
2023/03/05 12:47:41;;;;;;;4.00;1.10;;;6.30;99.90;;;;;;5089863;28;20549;-75
2023/03/05 12:50:27;;;;;;;4.70;1.00;;;6.40;99.90;;;;;;5088052;28;20128;-75
2023/03/05 12:52:54;;;;;;;5.43;1.33;;;6.50;99.90;;;;;;5072781;28;20040;-75
2023/03/05 12:55:32;;;;;;;2.47;1.00;;;6.60;99.90;;;;;;5090600;28;20089;-75
2023/03/05 12:58:10;;;;;;;5.13;1.10;;;6.60;99.90;;;;;;5090215;28;20044;-75
2023/03/05 13:00:51;;;;;;;5.10;1.20;;;6.70;99.90;;;;;;5091407;28;20056;-73
2023/03/05 13:03:27;;;;;;;4.43;1.10;;;6.80;99.90;;;;;;5091979;28;20040;-73
2023/03/05 13:05:56;;;;;;;6.20;1.65;;;6.90;99.90;;;;;;5089522;28;20039;-72
2023/03/05 13:08:36;;;;;;;7.18;1.48;;;6.90;99.90;;;;;;5087070;28;20132;-71